Aérodrome :







RETROUVEZ-NOUS SUR...

 
LOGIN :

S'inscrire | Disclaimer

   EN    FR    IT 

 









Légende :    VFR   VFR Marginal   IFR   IFR Intensif   IFR Très Intensif
Visi : 
Plafond : 
>= 8 km
>= 3000ft
5 à 8 km
1000 à 3000 ft
1500m à 5 km
500 à 1000 ft
800 à 1500m
200 à 500 ft
< 800m
< 200 ft
Symboles :   Orages  Brouillard  Fortes neiges  Fortes précipitations  Vent > 20 kt






- Altitude de l'aérodrome : 228 ft


KFSO - Franklin County State

DERNIER METAR :
  • 150256Z AUTO 17008KT 4SM -DZ OVC001 06/05 A2895 RMK AO2 T00600052

METARs EXPIRÉS :
  • 150236Z AUTO 22006KT 2SM +DZ OVC001 06/05 A2896 RMK AO2 VIS 1 1/2V4 T00550048
  • 150215Z AUTO 21003KT 4SM BR BKN001 BKN007 OVC018 06/05 A2895 RMK AO2 T00560050
  • 150155Z AUTO 18004KT 1 3/4SM -RA OVC001 05/05 A2894 RMK AO2 T00530047
  • 150136Z AUTO 19004KT 3/4SM RA OVC001 06/05 A2895 RMK AO2 T00550048
  • 150115Z AUTO 00000KT 3/4SM DZ OVC001 06/05 A2895 RMK AO2 T00580051
  • 150056Z AUTO 00000KT 3/4SM -DZ OVC001 06/05 A2896 RMK AO2 T00570050
  • 150036Z AUTO 25003KT 3/4SM BR BKN001 BKN008 OVC035 06/05 A2896 RMK AO2 T00560050
  • 150015Z AUTO 00000KT 1SM -RA SCT014 OVC030 06/05 A2897 RMK AO2 T00570050

TAF N/A



MET'MAP, la Météo Aéronautique d'un coup d'oeil ! - Copyright ORBIFLY Décembre 2007 - Disclaimer

ORBIFLY MET'MAP TEAM :

Programmation & Développement : Alexandra Zaïnal
Sur une idée originale de : Baudouin d'Aumeries
Assistance à la programmation : Marc-Olivier Méhu
Soutien technique & logistique : Manuel Goepfert

Contact : metmap@orbifly.com




SOURCES & CREDITS :

   NOAA